sensor_id;sensor_type;location;lat;lon;timestamp;pressure;altitude;pressure_sealevel;temperature;humidity
59337;BME280;45115;52.002;4.686;2022-09-23T00:02:00;101788.91;;;10.37;100.00
59337;BME280;45115;52.002;4.686;2022-09-23T00:04:27;101794.22;;;10.37;100.00
59337;BME280;45115;52.002;4.686;2022-09-23T00:06:54;101792.69;;;10.41;100.00
59337;BME280;45115;52.002;4.686;2022-09-23T00:09:21;101787.00;;;10.32;100.00
59337;BME280;45115;52.002;4.686;2022-09-23T00:11:49;101777.28;;;10.21;100.00
59337;BME280;45115;52.002;4.686;2022-09-23T00:14:16;101773.59;;;10.22;100.00
59337;BME280;45115;52.002;4.686;2022-09-23T00:16:44;101782.16;;;10.29;100.00
59337;BME280;45115;52.002;4.686;2022-09-23T00:19:11;101776.78;;;10.24;100.00
59337;BME280;45115;52.002;4.686;2022-09-23T00:21:38;101784.75;;;10.24;100.00
59337;BME280;45115;52.002;4.686;2022-09-23T00:24:04;101784.66;;;10.19;100.00
59337;BME280;45115;52.002;4.686;2022-09-23T00:26:32;101777.81;;;10.06;100.00
59337;BME280;45115;52.002;4.686;2022-09-23T00:28:59;101776.00;;;10.06;100.00
59337;BME280;45115;52.002;4.686;2022-09-23T00:31:26;101774.84;;;10.02;100.00
59337;BME280;45115;52.002;4.686;2022-09-23T00:33:55;101769.00;;;10.00;100.00
59337;BME280;45115;52.002;4.686;2022-09-23T00:36:23;101780.66;;;9.99;100.00
59337;BME280;45115;52.002;4.686;2022-09-23T00:38:53;101767.47;;;9.87;100.00
59337;BME280;45115;52.002;4.686;2022-09-23T00:41:20;101775.50;;;9.92;100.00
59337;BME280;45115;52.002;4.686;2022-09-23T00:43:49;101773.72;;;9.98;100.00
59337;BME280;45115;52.002;4.686;2022-09-23T00:46:18;101778.56;;;10.01;100.00
59337;BME280;45115;52.002;4.686;2022-09-23T00:48:47;101772.13;;;9.97;100.00
59337;BME280;45115;52.002;4.686;2022-09-23T00:51:19;101773.31;;;9.89;100.00
59337;BME280;45115;52.002;4.686;2022-09-23T00:53:50;101765.06;;;9.86;100.00
59337;BME280;45115;52.002;4.686;2022-09-23T00:56:18;101764.72;;;9.82;100.00
59337;BME280;45115;52.002;4.686;2022-09-23T00:58:48;101772.13;;;9.80;100.00
59337;BME280;45115;52.002;4.686;2022-09-23T01:01:15;101763.91;;;9.81;100.00
59337;BME280;45115;52.002;4.686;2022-09-23T01:03:43;101761.03;;;9.83;100.00
59337;BME280;45115;52.002;4.686;2022-09-23T01:06:11;101752.84;;;9.84;100.00
59337;BME280;45115;52.002;4.686;2022-09-23T01:08:40;101765.28;;;9.84;100.00
59337;BME280;45115;52.002;4.686;2022-09-23T01:11:17;101760.25;;;9.82;100.00
59337;BME280;45115;52.002;4.686;2022-09-23T01:13:53;101757.59;;;9.82;100.00
59337;BME280;45115;52.002;4.686;2022-09-23T01:16:26;101758.97;;;9.85;100.00
59337;BME280;45115;52.002;4.686;2022-09-23T01:19:01;101757.00;;;9.80;100.00
59337;BME280;45115;52.002;4.686;2022-09-23T01:21:39;101762.22;;;9.75;100.00
59337;BME280;45115;52.002;4.686;2022-09-23T01:24:32;101759.72;;;9.68;100.00
59337;BME280;45115;52.002;4.686;2022-09-23T01:27:08;101756.59;;;9.72;100.00
59337;BME280;45115;52.002;4.686;2022-09-23T01:29:56;101752.13;;;9.72;100.00
59337;BME280;45115;52.002;4.686;2022-09-23T01:32:35;101753.53;;;9.63;100.00
59337;BME280;45115;52.002;4.686;2022-09-23T01:35:09;101753.91;;;9.54;100.00
59337;BME280;45115;52.002;4.686;2022-09-23T01:37:45;101753.44;;;9.57;100.00
59337;BME280;45115;52.002;4.686;2022-09-23T01:40:17;101746.78;;;9.55;100.00
59337;BME280;45115;52.002;4.686;2022-09-23T01:42:49;101740.72;;;9.42;100.00
59337;BME280;45115;52.002;4.686;2022-09-23T01:45:23;101741.66;;;9.36;100.00
59337;BME280;45115;52.002;4.686;2022-09-23T01:47:54;101741.56;;;9.31;100.00
59337;BME280;45115;52.002;4.686;2022-09-23T01:50:25;101734.25;;;9.21;100.00
59337;BME280;45115;52.002;4.686;2022-09-23T01:53:30;101741.25;;;9.27;100.00
59337;BME280;45115;52.002;4.686;2022-09-23T01:56:05;101735.03;;;9.22;100.00
59337;BME280;45115;52.002;4.686;2022-09-23T01:58:39;101735.84;;;9.22;100.00
59337;BME280;45115;52.002;4.686;2022-09-23T02:01:10;101733.44;;;9.21;100.00
59337;BME280;45115;52.002;4.686;2022-09-23T02:03:44;101726.78;;;9.18;100.00
59337;BME280;45115;52.002;4.686;2022-09-23T02:06:18;101728.72;;;9.23;100.00
59337;BME280;45115;52.002;4.686;2022-09-23T02:08:50;101713.19;;;9.14;100.00
59337;BME280;45115;52.002;4.686;2022-09-23T02:11:18;101721.16;;;9.14;100.00
59337;BME280;45115;52.002;4.686;2022-09-23T02:13:49;101715.19;;;9.07;100.00
59337;BME280;45115;52.002;4.686;2022-09-23T02:16:25;101714.38;;;9.07;100.00
59337;BME280;45115;52.002;4.686;2022-09-23T02:18:58;101721.88;;;9.10;100.00
59337;BME280;45115;52.002;4.686;2022-09-23T02:21:32;101707.16;;;9.02;100.00
59337;BME280;45115;52.002;4.686;2022-09-23T02:24:04;101711.88;;;9.00;100.00
59337;BME280;45115;52.002;4.686;2022-09-23T02:26:37;101701.88;;;9.02;100.00
59337;BME280;45115;52.002;4.686;2022-09-23T02:29:16;101697.97;;;8.93;100.00
59337;BME280;45115;52.002;4.686;2022-09-23T02:31:49;101702.41;;;9.04;100.00
59337;BME280;45115;52.002;4.686;2022-09-23T02:34:29;101698.28;;;9.08;100.00
59337;BME280;45115;52.002;4.686;2022-09-23T02:37:06;101702.84;;;9.13;100.00
59337;BME280;45115;52.002;4.686;2022-09-23T02:39:41;101697.75;;;9.23;100.00
59337;BME280;45115;52.002;4.686;2022-09-23T02:42:13;101692.25;;;9.13;100.00
59337;BME280;45115;52.002;4.686;2022-09-23T02:44:41;101691.75;;;9.28;100.00
59337;BME280;45115;52.002;4.686;2022-09-23T02:47:08;101692.94;;;9.20;100.00
59337;BME280;45115;52.002;4.686;2022-09-23T02:49:36;101682.34;;;9.20;100.00
59337;BME280;45115;52.002;4.686;2022-09-23T02:52:04;101686.38;;;9.23;100.00
59337;BME280;45115;52.002;4.686;2022-09-23T02:54:32;101677.47;;;9.29;100.00
59337;BME280;45115;52.002;4.686;2022-09-23T02:57:01;101689.34;;;9.26;100.00
59337;BME280;45115;52.002;4.686;2022-09-23T02:59:30;101684.03;;;9.26;100.00
59337;BME280;45115;52.002;4.686;2022-09-23T03:05:14;101667.50;;;9.36;100.00
59337;BME280;45115;52.002;4.686;2022-09-23T03:07:51;101668.19;;;9.43;100.00
59337;BME280;45115;52.002;4.686;2022-09-23T03:10:28;101663.22;;;9.47;100.00
59337;BME280;45115;52.002;4.686;2022-09-23T03:13:03;101670.09;;;9.48;100.00
59337;BME280;45115;52.002;4.686;2022-09-23T03:15:37;101667.53;;;9.53;100.00
59337;BME280;45115;52.002;4.686;2022-09-23T03:18:11;101662.56;;;9.57;100.00
59337;BME280;45115;52.002;4.686;2022-09-23T03:20:45;101656.06;;;9.65;100.00
59337;BME280;45115;52.002;4.686;2022-09-23T03:23:18;101658.94;;;9.63;100.00
59337;BME280;45115;52.002;4.686;2022-09-23T03:25:48;101655.97;;;9.60;100.00
59337;BME280;45115;52.002;4.686;2022-09-23T03:28:19;101664.69;;;9.72;100.00
59337;BME280;45115;52.002;4.686;2022-09-23T03:30:47;101662.72;;;9.67;100.00
59337;BME280;45115;52.002;4.686;2022-09-23T03:33:16;101659.69;;;9.59;100.00
59337;BME280;45115;52.002;4.686;2022-09-23T03:35:50;101661.69;;;9.51;100.00
59337;BME280;45115;52.002;4.686;2022-09-23T03:38:43;101674.22;;;9.56;100.00
59337;BME280;45115;52.002;4.686;2022-09-23T03:41:12;101662.97;;;9.49;100.00
59337;BME280;45115;52.002;4.686;2022-09-23T03:43:42;101658.88;;;9.41;100.00
59337;BME280;45115;52.002;4.686;2022-09-23T03:46:09;101662.81;;;9.38;100.00
59337;BME280;45115;52.002;4.686;2022-09-23T03:48:36;101656.94;;;9.36;100.00
59337;BME280;45115;52.002;4.686;2022-09-23T03:51:18;101659.25;;;9.33;100.00
59337;BME280;45115;52.002;4.686;2022-09-23T03:53:46;101653.13;;;9.32;100.00
59337;BME280;45115;52.002;4.686;2022-09-23T03:56:12;101642.81;;;9.30;100.00
59337;BME280;45115;52.002;4.686;2022-09-23T03:58:39;101648.88;;;9.31;100.00
59337;BME280;45115;52.002;4.686;2022-09-23T04:01:06;101643.03;;;9.29;100.00
59337;BME280;45115;52.002;4.686;2022-09-23T04:03:34;101640.41;;;9.29;100.00
59337;BME280;45115;52.002;4.686;2022-09-23T04:06:00;101635.34;;;9.27;100.00
59337;BME280;45115;52.002;4.686;2022-09-23T04:08:28;101627.47;;;9.33;100.00
59337;BME280;45115;52.002;4.686;2022-09-23T04:10:58;101624.00;;;9.32;100.00
59337;BME280;45115;52.002;4.686;2022-09-23T04:13:26;101628.03;;;9.35;100.00
59337;BME280;45115;52.002;4.686;2022-09-23T04:15:53;101607.34;;;9.32;100.00
59337;BME280;45115;52.002;4.686;2022-09-23T04:18:21;101582.28;;;9.22;100.00
59337;BME280;45115;52.002;4.686;2022-09-23T04:20:48;101574.34;;;9.22;100.00
59337;BME280;45115;52.002;4.686;2022-09-23T04:23:15;101574.44;;;9.27;100.00
59337;BME280;45115;52.002;4.686;2022-09-23T04:25:47;101613.28;;;9.56;100.00
59337;BME280;45115;52.002;4.686;2022-09-23T04:28:14;101616.56;;;9.63;100.00
59337;BME280;45115;52.002;4.686;2022-09-23T04:30:41;101618.56;;;9.73;100.00
59337;BME280;45115;52.002;4.686;2022-09-23T04:33:11;101607.41;;;9.71;100.00
59337;BME280;45115;52.002;4.686;2022-09-23T04:35:38;101618.06;;;9.76;100.00
59337;BME280;45115;52.002;4.686;2022-09-23T04:38:08;101600.56;;;9.75;100.00
59337;BME280;45115;52.002;4.686;2022-09-23T04:40:35;101619.50;;;9.84;100.00
59337;BME280;45115;52.002;4.686;2022-09-23T04:43:03;101613.97;;;9.86;100.00
59337;BME280;45115;52.002;4.686;2022-09-23T04:45:30;101613.44;;;9.83;100.00
59337;BME280;45115;52.002;4.686;2022-09-23T04:47:57;101617.22;;;9.88;100.00
59337;BME280;45115;52.002;4.686;2022-09-23T04:50:24;101620.16;;;9.91;100.00
59337;BME280;45115;52.002;4.686;2022-09-23T04:52:51;101619.91;;;9.93;100.00
59337;BME280;45115;52.002;4.686;2022-09-23T04:55:18;101622.56;;;9.93;100.00
59337;BME280;45115;52.002;4.686;2022-09-23T04:57:45;101623.13;;;9.95;100.00
59337;BME280;45115;52.002;4.686;2022-09-23T05:00:14;101627.38;;;9.96;100.00
59337;BME280;45115;52.002;4.686;2022-09-23T05:02:42;101625.28;;;9.98;100.00
59337;BME280;45115;52.002;4.686;2022-09-23T05:05:09;101618.81;;;9.89;100.00
59337;BME280;45115;52.002;4.686;2022-09-23T05:07:36;101628.44;;;9.95;100.00
59337;BME280;45115;52.002;4.686;2022-09-23T05:10:03;101626.31;;;9.97;100.00
59337;BME280;45115;52.002;4.686;2022-09-23T05:12:30;101636.69;;;9.99;100.00
59337;BME280;45115;52.002;4.686;2022-09-23T05:14:57;101626.91;;;9.99;100.00
59337;BME280;45115;52.002;4.686;2022-09-23T05:17:26;101636.44;;;10.00;100.00
59337;BME280;45115;52.002;4.686;2022-09-23T05:19:53;101629.56;;;9.99;100.00
59337;BME280;45115;52.002;4.686;2022-09-23T05:22:22;101632.81;;;10.06;100.00
59337;BME280;45115;52.002;4.686;2022-09-23T05:24:50;101634.41;;;10.07;100.00
59337;BME280;45115;52.002;4.686;2022-09-23T05:27:17;101631.84;;;10.13;100.00
59337;BME280;45115;52.002;4.686;2022-09-23T05:29:43;101624.47;;;10.15;100.00
59337;BME280;45115;52.002;4.686;2022-09-23T05:32:10;101618.66;;;10.18;100.00
59337;BME280;45115;52.002;4.686;2022-09-23T05:34:38;101621.38;;;10.23;100.00
59337;BME280;45115;52.002;4.686;2022-09-23T05:37:05;101626.50;;;10.30;100.00
59337;BME280;45115;52.002;4.686;2022-09-23T05:39:32;101624.09;;;10.28;100.00
59337;BME280;45115;52.002;4.686;2022-09-23T05:41:58;101635.00;;;10.32;100.00
59337;BME280;45115;52.002;4.686;2022-09-23T05:44:25;101637.41;;;10.33;100.00
59337;BME280;45115;52.002;4.686;2022-09-23T05:46:52;101629.97;;;10.30;100.00
59337;BME280;45115;52.002;4.686;2022-09-23T05:49:19;101637.41;;;10.33;100.00
59337;BME280;45115;52.002;4.686;2022-09-23T05:51:47;101639.00;;;10.34;100.00
59337;BME280;45115;52.002;4.686;2022-09-23T05:54:14;101638.53;;;10.37;100.00
59337;BME280;45115;52.002;4.686;2022-09-23T05:56:40;101637.41;;;10.50;100.00
59337;BME280;45115;52.002;4.686;2022-09-23T05:59:08;101639.00;;;10.52;100.00
59337;BME280;45115;52.002;4.686;2022-09-23T06:01:35;101632.03;;;10.45;100.00
59337;BME280;45115;52.002;4.686;2022-09-23T06:04:04;101635.22;;;10.47;100.00
59337;BME280;45115;52.002;4.686;2022-09-23T06:06:34;101639.81;;;10.52;100.00
59337;BME280;45115;52.002;4.686;2022-09-23T06:09:03;101638.28;;;10.56;100.00
59337;BME280;45115;52.002;4.686;2022-09-23T06:11:31;101638.56;;;10.60;100.00
59337;BME280;45115;52.002;4.686;2022-09-23T06:13:58;101634.16;;;10.71;100.00
59337;BME280;45115;52.002;4.686;2022-09-23T06:16:27;101633.22;;;10.82;100.00
59337;BME280;45115;52.002;4.686;2022-09-23T06:18:54;101632.53;;;10.92;100.00
59337;BME280;45115;52.002;4.686;2022-09-23T06:21:21;101636.59;;;11.00;100.00
59337;BME280;45115;52.002;4.686;2022-09-23T06:23:47;101636.41;;;11.07;100.00
59337;BME280;45115;52.002;4.686;2022-09-23T06:26:15;101634.88;;;11.16;100.00
59337;BME280;45115;52.002;4.686;2022-09-23T06:28:43;101631.53;;;11.26;100.00
59337;BME280;45115;52.002;4.686;2022-09-23T06:31:12;101631.06;;;11.34;100.00
59337;BME280;45115;52.002;4.686;2022-09-23T06:33:40;101626.88;;;11.43;100.00
59337;BME280;45115;52.002;4.686;2022-09-23T06:36:08;101627.78;;;11.54;100.00
59337;BME280;45115;52.002;4.686;2022-09-23T06:38:37;101620.13;;;11.63;100.00
59337;BME280;45115;52.002;4.686;2022-09-23T06:41:04;101627.63;;;11.72;100.00
59337;BME280;45115;52.002;4.686;2022-09-23T06:43:32;101629.56;;;11.81;100.00
59337;BME280;45115;52.002;4.686;2022-09-23T06:46:00;101620.84;;;11.91;100.00
59337;BME280;45115;52.002;4.686;2022-09-23T06:48:28;101621.16;;;12.00;100.00
59337;BME280;45115;52.002;4.686;2022-09-23T06:50:58;101621.22;;;12.11;100.00
59337;BME280;45115;52.002;4.686;2022-09-23T06:53:27;101621.84;;;12.23;100.00
59337;BME280;45115;52.002;4.686;2022-09-23T06:55:57;101621.59;;;12.35;100.00
59337;BME280;45115;52.002;4.686;2022-09-23T06:58:23;101618.47;;;12.48;100.00
59337;BME280;45115;52.002;4.686;2022-09-23T07:00:52;101616.91;;;12.58;100.00
59337;BME280;45115;52.002;4.686;2022-09-23T07:03:19;101621.19;;;12.69;100.00
59337;BME280;45115;52.002;4.686;2022-09-23T07:05:46;101620.41;;;12.79;100.00
59337;BME280;45115;52.002;4.686;2022-09-23T07:08:13;101620.72;;;12.88;100.00
59337;BME280;45115;52.002;4.686;2022-09-23T07:10:40;101617.00;;;12.99;100.00
59337;BME280;45115;52.002;4.686;2022-09-23T07:13:06;101626.59;;;13.16;100.00
59337;BME280;45115;52.002;4.686;2022-09-23T07:15:33;101622.34;;;13.31;100.00
59337;BME280;45115;52.002;4.686;2022-09-23T07:18:03;101629.81;;;13.54;100.00
59337;BME280;45115;52.002;4.686;2022-09-23T07:20:30;101628.47;;;13.78;100.00
59337;BME280;45115;52.002;4.686;2022-09-23T07:22:57;101632.66;;;14.05;99.53
59337;BME280;45115;52.002;4.686;2022-09-23T07:25:24;101620.81;;;14.32;97.61
59337;BME280;45115;52.002;4.686;2022-09-23T07:27:51;101626.25;;;14.67;93.79
59337;BME280;45115;52.002;4.686;2022-09-23T07:30:17;101607.53;;;14.72;91.33
59337;BME280;45115;52.002;4.686;2022-09-23T07:32:44;101618.41;;;14.91;89.86
59337;BME280;45115;52.002;4.686;2022-09-23T07:35:12;101619.88;;;15.13;89.29
59337;BME280;45115;52.002;4.686;2022-09-23T07:37:39;101621.38;;;15.24;87.13
59337;BME280;45115;52.002;4.686;2022-09-23T07:40:06;101629.03;;;15.36;86.84
59337;BME280;45115;52.002;4.686;2022-09-23T07:42:33;101613.88;;;15.26;86.80
59337;BME280;45115;52.002;4.686;2022-09-23T07:45:00;101612.34;;;15.15;87.26
59337;BME280;45115;52.002;4.686;2022-09-23T07:47:27;101619.66;;;15.04;87.96
59337;BME280;45115;52.002;4.686;2022-09-23T07:49:54;101619.13;;;15.02;88.65
59337;BME280;45115;52.002;4.686;2022-09-23T07:52:22;101620.75;;;14.98;88.83
59337;BME280;45115;52.002;4.686;2022-09-23T07:54:48;101621.22;;;15.10;88.66
59337;BME280;45115;52.002;4.686;2022-09-23T07:57:16;101622.22;;;15.20;87.68
59337;BME280;45115;52.002;4.686;2022-09-23T07:59:43;101625.44;;;15.17;87.57
59337;BME280;45115;52.002;4.686;2022-09-23T08:02:10;101610.25;;;15.12;87.19
59337;BME280;45115;52.002;4.686;2022-09-23T08:04:39;101626.72;;;15.24;86.17
59337;BME280;45115;52.002;4.686;2022-09-23T08:07:05;101629.59;;;15.33;85.70
59337;BME280;45115;52.002;4.686;2022-09-23T08:09:36;101627.22;;;15.26;85.22
59337;BME280;45115;52.002;4.686;2022-09-23T08:12:06;101628.00;;;15.32;85.29
59337;BME280;45115;52.002;4.686;2022-09-23T08:14:33;101628.75;;;15.38;85.15
59337;BME280;45115;52.002;4.686;2022-09-23T08:16:59;101632.63;;;15.51;84.92
59337;BME280;45115;52.002;4.686;2022-09-23T08:19:26;101626.63;;;15.64;84.72
59337;BME280;45115;52.002;4.686;2022-09-23T08:21:53;101631.84;;;15.80;83.32
59337;BME280;45115;52.002;4.686;2022-09-23T08:24:21;101630.06;;;16.00;82.50
59337;BME280;45115;52.002;4.686;2022-09-23T08:26:50;101620.19;;;16.19;81.44
59337;BME280;45115;52.002;4.686;2022-09-23T08:29:19;101630.34;;;16.42;80.24
59337;BME280;45115;52.002;4.686;2022-09-23T08:31:46;101629.13;;;16.72;79.14
59337;BME280;45115;52.002;4.686;2022-09-23T08:34:14;101634.56;;;16.86;77.20
59337;BME280;45115;52.002;4.686;2022-09-23T08:36:42;101629.75;;;17.03;78.04
59337;BME280;45115;52.002;4.686;2022-09-23T08:39:14;101632.84;;;17.15;77.13
59337;BME280;45115;52.002;4.686;2022-09-23T08:41:45;101630.44;;;17.13;75.85
59337;BME280;45115;52.002;4.686;2022-09-23T08:44:20;101620.38;;;17.05;75.44
59337;BME280;45115;52.002;4.686;2022-09-23T08:46:52;101634.50;;;17.11;76.21
59337;BME280;45115;52.002;4.686;2022-09-23T08:49:24;101643.78;;;17.19;76.20
59337;BME280;45115;52.002;4.686;2022-09-23T08:51:53;101641.41;;;17.31;76.08
59337;BME280;45115;52.002;4.686;2022-09-23T08:54:21;101621.63;;;17.27;75.78
59337;BME280;45115;52.002;4.686;2022-09-23T08:56:53;101635.19;;;17.36;75.21
59337;BME280;45115;52.002;4.686;2022-09-23T08:59:28;101632.28;;;17.32;72.23
59337;BME280;45115;52.002;4.686;2022-09-23T09:02:05;101630.03;;;17.39;72.89
59337;BME280;45115;52.002;4.686;2022-09-23T09:04:39;101636.59;;;17.47;72.27
59337;BME280;45115;52.002;4.686;2022-09-23T09:07:13;101643.94;;;17.56;72.18
59337;BME280;45115;52.002;4.686;2022-09-23T09:09:44;101627.06;;;17.55;70.71
59337;BME280;45115;52.002;4.686;2022-09-23T09:12:13;101643.09;;;17.60;70.82
59337;BME280;45115;52.002;4.686;2022-09-23T09:14:49;101635.34;;;17.73;70.51
59337;BME280;45115;52.002;4.686;2022-09-23T09:17:22;101640.03;;;17.95;69.66
59337;BME280;45115;52.002;4.686;2022-09-23T09:19:56;101645.91;;;18.11;70.17
59337;BME280;45115;52.002;4.686;2022-09-23T09:22:38;101646.31;;;18.32;69.92
59337;BME280;45115;52.002;4.686;2022-09-23T09:25:14;101644.00;;;18.40;67.97
59337;BME280;45115;52.002;4.686;2022-09-23T09:27:43;101639.88;;;18.56;68.42
59337;BME280;45115;52.002;4.686;2022-09-23T09:30:12;101635.56;;;18.69;68.28
59337;BME280;45115;52.002;4.686;2022-09-23T09:32:44;101635.75;;;18.73;68.40
59337;BME280;45115;52.002;4.686;2022-09-23T09:35:22;101636.28;;;18.61;67.41
59337;BME280;45115;52.002;4.686;2022-09-23T09:37:51;101638.06;;;18.66;67.47
59337;BME280;45115;52.002;4.686;2022-09-23T09:40:17;101628.53;;;18.59;66.49
59337;BME280;45115;52.002;4.686;2022-09-23T09:42:47;101625.63;;;18.70;66.83
59337;BME280;45115;52.002;4.686;2022-09-23T09:45:26;101626.84;;;18.64;66.20
59337;BME280;45115;52.002;4.686;2022-09-23T09:47:59;101627.13;;;18.85;66.52
59337;BME280;45115;52.002;4.686;2022-09-23T09:50:45;101619.94;;;18.94;66.31
59337;BME280;45115;52.002;4.686;2022-09-23T09:53:16;101620.25;;;18.93;64.46
59337;BME280;45115;52.002;4.686;2022-09-23T09:55:57;101615.63;;;19.07;64.84
59337;BME280;45115;52.002;4.686;2022-09-23T09:58:26;101620.50;;;19.28;64.42
59337;BME280;45115;52.002;4.686;2022-09-23T10:00:55;101607.47;;;19.21;63.88
59337;BME280;45115;52.002;4.686;2022-09-23T10:03:29;101607.31;;;19.18;63.94
59337;BME280;45115;52.002;4.686;2022-09-23T10:05:58;101605.09;;;19.20;63.76
59337;BME280;45115;52.002;4.686;2022-09-23T10:08:27;101604.91;;;19.16;63.96
59337;BME280;45115;52.002;4.686;2022-09-23T10:11:01;101600.28;;;19.08;63.79
59337;BME280;45115;52.002;4.686;2022-09-23T10:13:29;101606.31;;;18.91;65.03
59337;BME280;45115;52.002;4.686;2022-09-23T10:15:59;101606.75;;;19.07;65.11
59337;BME280;45115;52.002;4.686;2022-09-23T10:18:29;101607.31;;;18.95;64.81
59337;BME280;45115;52.002;4.686;2022-09-23T10:21:06;101606.19;;;18.96;64.66
59337;BME280;45115;52.002;4.686;2022-09-23T10:23:37;101602.09;;;18.98;65.23
59337;BME280;45115;52.002;4.686;2022-09-23T10:26:06;101608.47;;;19.03;64.35
59337;BME280;45115;52.002;4.686;2022-09-23T10:28:46;101599.84;;;19.15;64.79
59337;BME280;45115;52.002;4.686;2022-09-23T10:31:22;101606.38;;;19.22;64.82
59337;BME280;45115;52.002;4.686;2022-09-23T10:33:51;101606.91;;;19.33;63.50
59337;BME280;45115;52.002;4.686;2022-09-23T10:36:19;101602.94;;;19.31;64.85
59337;BME280;45115;52.002;4.686;2022-09-23T10:38:48;101598.84;;;19.33;65.70
59337;BME280;45115;52.002;4.686;2022-09-23T10:41:26;101603.06;;;19.25;63.36
59337;BME280;45115;52.002;4.686;2022-09-23T10:44:28;101588.03;;;19.24;63.09
59337;BME280;45115;52.002;4.686;2022-09-23T10:47:21;101605.53;;;19.45;63.35
59337;BME280;45115;52.002;4.686;2022-09-23T10:50:02;101600.69;;;19.56;62.79
59337;BME280;45115;52.002;4.686;2022-09-23T10:52:49;101589.81;;;19.70;62.79
59337;BME280;45115;52.002;4.686;2022-09-23T10:55:29;101609.81;;;19.86;61.88
59337;BME280;45115;52.002;4.686;2022-09-23T10:58:37;101598.59;;;19.84;61.67
59337;BME280;45115;52.002;4.686;2022-09-23T11:01:19;101605.56;;;19.94;62.02
59337;BME280;45115;52.002;4.686;2022-09-23T11:04:08;101598.03;;;20.05;61.53
59337;BME280;45115;52.002;4.686;2022-09-23T11:06:52;101588.53;;;20.08;61.78
59337;BME280;45115;52.002;4.686;2022-09-23T11:09:32;101589.63;;;20.07;62.22
59337;BME280;45115;52.002;4.686;2022-09-23T11:12:15;101589.31;;;20.17;61.93
59337;BME280;45115;52.002;4.686;2022-09-23T11:14:52;101591.88;;;20.31;62.51
59337;BME280;45115;52.002;4.686;2022-09-23T11:17:36;101584.44;;;20.45;61.51
59337;BME280;45115;52.002;4.686;2022-09-23T11:20:22;101580.47;;;20.34;60.68
59337;BME280;45115;52.002;4.686;2022-09-23T11:23:03;101587.72;;;20.07;61.46
59337;BME280;45115;52.002;4.686;2022-09-23T11:25:40;101593.41;;;19.97;62.99
59337;BME280;45115;52.002;4.686;2022-09-23T11:28:30;101590.84;;;19.91;62.67
59337;BME280;45115;52.002;4.686;2022-09-23T11:31:08;101584.88;;;20.03;62.20
59337;BME280;45115;52.002;4.686;2022-09-23T11:33:50;101584.56;;;20.23;62.41
59337;BME280;45115;52.002;4.686;2022-09-23T11:36:26;101578.53;;;20.17;62.09
59337;BME280;45115;52.002;4.686;2022-09-23T11:39:00;101573.34;;;20.21;61.83
59337;BME280;45115;52.002;4.686;2022-09-23T11:41:30;101580.47;;;20.25;62.39
59337;BME280;45115;52.002;4.686;2022-09-23T11:44:04;101576.34;;;20.45;61.31
59337;BME280;45115;52.002;4.686;2022-09-23T11:46:37;101569.50;;;20.57;62.01
59337;BME280;45115;52.002;4.686;2022-09-23T11:49:10;101560.59;;;20.83;60.21
59337;BME280;45115;52.002;4.686;2022-09-23T11:51:50;101563.88;;;21.24;59.94
59337;BME280;45115;52.002;4.686;2022-09-23T11:54:20;101570.63;;;21.39;59.43
59337;BME280;45115;52.002;4.686;2022-09-23T11:56:51;101568.44;;;21.71;58.11
59337;BME280;45115;52.002;4.686;2022-09-23T11:59:27;101566.41;;;21.59;57.48
59337;BME280;45115;52.002;4.686;2022-09-23T12:02:00;101557.47;;;21.68;58.33
59337;BME280;45115;52.002;4.686;2022-09-23T12:04:32;101557.78;;;21.75;58.73
59337;BME280;45115;52.002;4.686;2022-09-23T12:07:07;101554.66;;;21.64;57.96
59337;BME280;45115;52.002;4.686;2022-09-23T12:09:42;101547.41;;;21.47;58.36
59337;BME280;45115;52.002;4.686;2022-09-23T12:12:21;101553.31;;;21.40;59.08
59337;BME280;45115;52.002;4.686;2022-09-23T12:14:56;101552.94;;;21.50;59.76
59337;BME280;45115;52.002;4.686;2022-09-23T12:17:56;101547.81;;;21.67;58.73
59337;BME280;45115;52.002;4.686;2022-09-23T12:20:57;101546.59;;;21.85;57.09
59337;BME280;45115;52.002;4.686;2022-09-23T12:23:50;101544.75;;;21.98;57.24
59337;BME280;45115;52.002;4.686;2022-09-23T12:26:22;101547.41;;;21.86;57.96
59337;BME280;45115;52.002;4.686;2022-09-23T12:28:52;101541.72;;;21.79;57.74
59337;BME280;45115;52.002;4.686;2022-09-23T12:31:23;101543.38;;;21.71;58.54
59337;BME280;45115;52.002;4.686;2022-09-23T12:33:56;101535.13;;;21.28;59.10
59337;BME280;45115;52.002;4.686;2022-09-23T12:36:27;101528.09;;;21.36;58.98
59337;BME280;45115;52.002;4.686;2022-09-23T12:39:02;101533.66;;;21.31;59.80
59337;BME280;45115;52.002;4.686;2022-09-23T12:41:33;101533.66;;;21.31;59.93
59337;BME280;45115;52.002;4.686;2022-09-23T12:44:27;101527.72;;;21.16;61.32
59337;BME280;45115;52.002;4.686;2022-09-23T12:49:53;101526.34;;;20.92;62.88
59337;BME280;45115;52.002;4.686;2022-09-23T12:52:24;101531.72;;;21.10;61.86
59337;BME280;45115;52.002;4.686;2022-09-23T12:54:55;101522.84;;;21.01;62.83
59337;BME280;45115;52.002;4.686;2022-09-23T12:57:40;101514.47;;;20.76;64.38
59337;BME280;45115;52.002;4.686;2022-09-23T13:00:22;101530.31;;;20.95;64.44
59337;BME280;45115;52.002;4.686;2022-09-23T13:02:53;101520.94;;;20.92;64.84
59337;BME280;45115;52.002;4.686;2022-09-23T13:05:50;101518.03;;;21.06;65.58
59337;BME280;45115;52.002;4.686;2022-09-23T13:08:35;101524.28;;;20.80;66.14
59337;BME280;45115;52.002;4.686;2022-09-23T13:11:07;101525.56;;;20.92;66.23
59337;BME280;45115;52.002;4.686;2022-09-23T13:13:42;101509.38;;;20.74;67.00
59337;BME280;45115;52.002;4.686;2022-09-23T13:16:20;101517.44;;;20.83;67.42
59337;BME280;45115;52.002;4.686;2022-09-23T13:18:51;101513.19;;;20.82;67.87